sensor_id;sensor_type;location;lat;lon;timestamp;temperature;humidity
6252;DHT22;3159;52.414;9.784;2022-11-03T00:00:34;10.10;99.90
6252;DHT22;3159;52.414;9.784;2022-11-03T00:03:01;10.20;99.90
6252;DHT22;3159;52.414;9.784;2022-11-03T00:05:28;10.20;99.90
6252;DHT22;3159;52.414;9.784;2022-11-03T00:08:12;10.20;99.90
6252;DHT22;3159;52.414;9.784;2022-11-03T00:10:39;10.30;99.90
6252;DHT22;3159;52.414;9.784;2022-11-03T00:13:06;10.30;99.90
6252;DHT22;3159;52.414;9.784;2022-11-03T00:15:34;10.30;99.90
6252;DHT22;3159;52.414;9.784;2022-11-03T00:18:01;10.30;99.90
6252;DHT22;3159;52.414;9.784;2022-11-03T00:20:28;10.40;99.90
6252;DHT22;3159;52.414;9.784;2022-11-03T00:22:55;10.30;99.90
6252;DHT22;3159;52.414;9.784;2022-11-03T00:25:21;10.30;99.90
6252;DHT22;3159;52.414;9.784;2022-11-03T00:27:53;10.30;99.90
6252;DHT22;3159;52.414;9.784;2022-11-03T00:30:21;10.30;99.90
6252;DHT22;3159;52.414;9.784;2022-11-03T00:32:49;10.30;99.90
6252;DHT22;3159;52.414;9.784;2022-11-03T00:35:16;10.20;99.90
6252;DHT22;3159;52.414;9.784;2022-11-03T00:37:42;10.30;99.90
6252;DHT22;3159;52.414;9.784;2022-11-03T00:40:10;10.20;99.90
6252;DHT22;3159;52.414;9.784;2022-11-03T00:42:37;10.40;99.90
6252;DHT22;3159;52.414;9.784;2022-11-03T00:45:05;10.20;99.90
6252;DHT22;3159;52.414;9.784;2022-11-03T00:47:32;10.30;99.90
6252;DHT22;3159;52.414;9.784;2022-11-03T00:50:00;10.30;99.90
6252;DHT22;3159;52.414;9.784;2022-11-03T00:52:27;10.20;99.90
6252;DHT22;3159;52.414;9.784;2022-11-03T00:54:53;10.30;99.90
6252;DHT22;3159;52.414;9.784;2022-11-03T00:57:20;10.30;99.90
6252;DHT22;3159;52.414;9.784;2022-11-03T00:59:47;10.30;99.90
6252;DHT22;3159;52.414;9.784;2022-11-03T01:02:14;10.30;99.90
6252;DHT22;3159;52.414;9.784;2022-11-03T01:04:41;10.20;99.90
6252;DHT22;3159;52.414;9.784;2022-11-03T01:07:26;10.20;99.90
6252;DHT22;3159;52.414;9.784;2022-11-03T01:09:53;10.20;99.90
6252;DHT22;3159;52.414;9.784;2022-11-03T01:12:20;10.20;99.90
6252;DHT22;3159;52.414;9.784;2022-11-03T01:14:48;10.30;99.90
6252;DHT22;3159;52.414;9.784;2022-11-03T01:17:17;10.30;99.90
6252;DHT22;3159;52.414;9.784;2022-11-03T01:19:45;10.20;99.90
6252;DHT22;3159;52.414;9.784;2022-11-03T01:22:12;10.30;99.90
6252;DHT22;3159;52.414;9.784;2022-11-03T01:24:41;10.30;99.90
6252;DHT22;3159;52.414;9.784;2022-11-03T01:27:09;10.30;99.90
6252;DHT22;3159;52.414;9.784;2022-11-03T01:29:37;10.30;99.90
6252;DHT22;3159;52.414;9.784;2022-11-03T01:32:04;10.30;99.90
6252;DHT22;3159;52.414;9.784;2022-11-03T01:34:33;10.40;99.90
6252;DHT22;3159;52.414;9.784;2022-11-03T01:37:00;10.40;99.90
6252;DHT22;3159;52.414;9.784;2022-11-03T01:39:26;10.40;99.90
6252;DHT22;3159;52.414;9.784;2022-11-03T01:41:55;10.40;99.90
6252;DHT22;3159;52.414;9.784;2022-11-03T01:44:28;10.50;99.90
6252;DHT22;3159;52.414;9.784;2022-11-03T01:47:03;10.50;99.90
6252;DHT22;3159;52.414;9.784;2022-11-03T01:49:35;10.50;99.90
6252;DHT22;3159;52.414;9.784;2022-11-03T01:52:07;10.50;99.90
6252;DHT22;3159;52.414;9.784;2022-11-03T01:54:36;10.40;99.90
6252;DHT22;3159;52.414;9.784;2022-11-03T01:57:08;10.50;99.90
6252;DHT22;3159;52.414;9.784;2022-11-03T01:59:36;10.50;99.90
6252;DHT22;3159;52.414;9.784;2022-11-03T02:02:03;10.50;99.90
6252;DHT22;3159;52.414;9.784;2022-11-03T02:04:32;10.50;99.90
6252;DHT22;3159;52.414;9.784;2022-11-03T02:07:07;10.50;99.90
6252;DHT22;3159;52.414;9.784;2022-11-03T02:09:36;10.50;99.90
6252;DHT22;3159;52.414;9.784;2022-11-03T02:12:03;10.50;99.90
6252;DHT22;3159;52.414;9.784;2022-11-03T02:14:37;10.50;99.90
6252;DHT22;3159;52.414;9.784;2022-11-03T02:17:07;10.50;99.90
6252;DHT22;3159;52.414;9.784;2022-11-03T02:19:39;10.60;99.90
6252;DHT22;3159;52.414;9.784;2022-11-03T02:22:40;10.60;99.90
6252;DHT22;3159;52.414;9.784;2022-11-03T02:25:16;10.50;99.90
6252;DHT22;3159;52.414;9.784;2022-11-03T02:27:45;10.50;99.90
6252;DHT22;3159;52.414;9.784;2022-11-03T02:30:12;10.50;99.90
6252;DHT22;3159;52.414;9.784;2022-11-03T02:32:43;10.50;99.90
6252;DHT22;3159;52.414;9.784;2022-11-03T02:35:20;10.50;99.90
6252;DHT22;3159;52.414;9.784;2022-11-03T02:37:52;10.50;99.90
6252;DHT22;3159;52.414;9.784;2022-11-03T02:40:23;10.50;99.90
6252;DHT22;3159;52.414;9.784;2022-11-03T02:42:54;10.50;99.90
6252;DHT22;3159;52.414;9.784;2022-11-03T02:45:24;10.60;99.90
6252;DHT22;3159;52.414;9.784;2022-11-03T02:47:54;10.50;99.90
6252;DHT22;3159;52.414;9.784;2022-11-03T02:50:26;10.50;99.90
6252;DHT22;3159;52.414;9.784;2022-11-03T02:52:53;10.40;99.90
6252;DHT22;3159;52.414;9.784;2022-11-03T02:55:28;10.40;99.90
6252;DHT22;3159;52.414;9.784;2022-11-03T02:58:05;10.40;99.90
6252;DHT22;3159;52.414;9.784;2022-11-03T03:00:38;10.50;99.90
6252;DHT22;3159;52.414;9.784;2022-11-03T03:03:10;10.40;99.90
6252;DHT22;3159;52.414;9.784;2022-11-03T03:05:40;10.40;99.90
6252;DHT22;3159;52.414;9.784;2022-11-03T03:08:09;10.40;99.90
6252;DHT22;3159;52.414;9.784;2022-11-03T03:10:39;10.40;99.90
6252;DHT22;3159;52.414;9.784;2022-11-03T03:13:10;10.50;99.90
6252;DHT22;3159;52.414;9.784;2022-11-03T03:15:43;10.50;99.90
6252;DHT22;3159;52.414;9.784;2022-11-03T03:18:17;10.50;99.90
6252;DHT22;3159;52.414;9.784;2022-11-03T03:20:50;10.40;99.90
6252;DHT22;3159;52.414;9.784;2022-11-03T03:23:22;10.40;99.90
6252;DHT22;3159;52.414;9.784;2022-11-03T03:25:53;10.40;99.90
6252;DHT22;3159;52.414;9.784;2022-11-03T03:28:25;10.40;99.90
6252;DHT22;3159;52.414;9.784;2022-11-03T03:30:56;10.50;99.90
6252;DHT22;3159;52.414;9.784;2022-11-03T03:33:25;10.40;99.90
6252;DHT22;3159;52.414;9.784;2022-11-03T03:35:55;10.40;99.90
6252;DHT22;3159;52.414;9.784;2022-11-03T03:38:25;10.40;99.90
6252;DHT22;3159;52.414;9.784;2022-11-03T03:40:54;10.30;99.90
6252;DHT22;3159;52.414;9.784;2022-11-03T03:43:25;10.30;99.90
6252;DHT22;3159;52.414;9.784;2022-11-03T03:45:57;10.30;99.90
6252;DHT22;3159;52.414;9.784;2022-11-03T03:48:25;10.30;99.90
6252;DHT22;3159;52.414;9.784;2022-11-03T03:50:52;10.30;99.90
6252;DHT22;3159;52.414;9.784;2022-11-03T03:53:19;10.40;99.90
6252;DHT22;3159;52.414;9.784;2022-11-03T03:55:49;10.30;99.90
6252;DHT22;3159;52.414;9.784;2022-11-03T03:58:17;10.30;99.90
6252;DHT22;3159;52.414;9.784;2022-11-03T04:00:45;10.30;99.90
6252;DHT22;3159;52.414;9.784;2022-11-03T04:03:15;10.40;99.90
6252;DHT22;3159;52.414;9.784;2022-11-03T04:05:43;10.40;99.90
6252;DHT22;3159;52.414;9.784;2022-11-03T04:08:10;10.40;99.90
6252;DHT22;3159;52.414;9.784;2022-11-03T04:10:37;10.30;99.90
6252;DHT22;3159;52.414;9.784;2022-11-03T04:13:04;10.40;99.90
6252;DHT22;3159;52.414;9.784;2022-11-03T04:15:50;10.40;99.90
6252;DHT22;3159;52.414;9.784;2022-11-03T04:18:40;10.30;99.90
6252;DHT22;3159;52.414;9.784;2022-11-03T04:21:25;10.30;99.90
6252;DHT22;3159;52.414;9.784;2022-11-03T04:24:09;10.40;99.90
6252;DHT22;3159;52.414;9.784;2022-11-03T04:26:36;10.40;99.90
6252;DHT22;3159;52.414;9.784;2022-11-03T04:29:05;10.30;99.90
6252;DHT22;3159;52.414;9.784;2022-11-03T04:31:34;10.30;99.90
6252;DHT22;3159;52.414;9.784;2022-11-03T04:34:03;10.30;99.90
6252;DHT22;3159;52.414;9.784;2022-11-03T04:36:35;10.30;99.90
6252;DHT22;3159;52.414;9.784;2022-11-03T04:39:14;10.30;99.90
6252;DHT22;3159;52.414;9.784;2022-11-03T04:41:42;10.20;99.90
6252;DHT22;3159;52.414;9.784;2022-11-03T04:44:13;10.20;99.90
6252;DHT22;3159;52.414;9.784;2022-11-03T04:46:42;10.30;99.90
6252;DHT22;3159;52.414;9.784;2022-11-03T04:49:15;10.20;99.90
6252;DHT22;3159;52.414;9.784;2022-11-03T04:51:45;10.20;99.90
6252;DHT22;3159;52.414;9.784;2022-11-03T04:54:14;10.20;99.90
6252;DHT22;3159;52.414;9.784;2022-11-03T04:56:41;10.10;99.90
6252;DHT22;3159;52.414;9.784;2022-11-03T04:59:10;10.20;99.90
6252;DHT22;3159;52.414;9.784;2022-11-03T05:01:38;10.20;99.90
6252;DHT22;3159;52.414;9.784;2022-11-03T05:04:11;10.20;99.90
6252;DHT22;3159;52.414;9.784;2022-11-03T05:06:39;10.10;99.90
6252;DHT22;3159;52.414;9.784;2022-11-03T05:09:11;10.10;99.90
6252;DHT22;3159;52.414;9.784;2022-11-03T05:11:41;10.10;99.90
6252;DHT22;3159;52.414;9.784;2022-11-03T05:14:14;10.10;99.90
6252;DHT22;3159;52.414;9.784;2022-11-03T05:16:41;10.20;99.90
6252;DHT22;3159;52.414;9.784;2022-11-03T05:19:14;10.20;99.90
6252;DHT22;3159;52.414;9.784;2022-11-03T05:21:41;10.20;99.90
6252;DHT22;3159;52.414;9.784;2022-11-03T05:24:11;10.20;99.90
6252;DHT22;3159;52.414;9.784;2022-11-03T05:26:39;10.20;99.90
6252;DHT22;3159;52.414;9.784;2022-11-03T05:29:12;10.20;99.90
6252;DHT22;3159;52.414;9.784;2022-11-03T05:31:41;10.20;99.90
6252;DHT22;3159;52.414;9.784;2022-11-03T05:34:25;10.20;99.90
6252;DHT22;3159;52.414;9.784;2022-11-03T05:36:53;10.20;99.90
6252;DHT22;3159;52.414;9.784;2022-11-03T05:39:28;10.10;99.90
6252;DHT22;3159;52.414;9.784;2022-11-03T05:41:56;10.30;99.90
6252;DHT22;3159;52.414;9.784;2022-11-03T05:44:27;10.30;99.90
6252;DHT22;3159;52.414;9.784;2022-11-03T05:46:56;10.20;99.90
6252;DHT22;3159;52.414;9.784;2022-11-03T05:49:24;10.20;99.90
6252;DHT22;3159;52.414;9.784;2022-11-03T05:51:53;10.30;99.90
6252;DHT22;3159;52.414;9.784;2022-11-03T05:54:22;10.20;99.90
6252;DHT22;3159;52.414;9.784;2022-11-03T05:56:49;10.20;99.90
6252;DHT22;3159;52.414;9.784;2022-11-03T05:59:19;10.30;99.90
6252;DHT22;3159;52.414;9.784;2022-11-03T06:01:47;10.20;99.90
6252;DHT22;3159;52.414;9.784;2022-11-03T06:04:19;10.20;99.90
6252;DHT22;3159;52.414;9.784;2022-11-03T06:06:50;10.20;99.90
6252;DHT22;3159;52.414;9.784;2022-11-03T06:09:20;10.20;99.90
6252;DHT22;3159;52.414;9.784;2022-11-03T06:11:49;10.30;99.90
6252;DHT22;3159;52.414;9.784;2022-11-03T06:14:18;10.30;99.90
6252;DHT22;3159;52.414;9.784;2022-11-03T06:16:47;10.30;99.90
6252;DHT22;3159;52.414;9.784;2022-11-03T06:19:24;10.30;99.90
6252;DHT22;3159;52.414;9.784;2022-11-03T06:21:56;10.30;99.90
6252;DHT22;3159;52.414;9.784;2022-11-03T06:24:28;10.30;99.90
6252;DHT22;3159;52.414;9.784;2022-11-03T06:26:55;10.40;99.90
6252;DHT22;3159;52.414;9.784;2022-11-03T06:29:23;10.40;99.90
6252;DHT22;3159;52.414;9.784;2022-11-03T06:31:52;10.30;99.90
6252;DHT22;3159;52.414;9.784;2022-11-03T06:34:30;10.40;99.90
6252;DHT22;3159;52.414;9.784;2022-11-03T06:37:09;10.30;99.90
6252;DHT22;3159;52.414;9.784;2022-11-03T06:39:37;10.30;99.90
6252;DHT22;3159;52.414;9.784;2022-11-03T06:42:11;10.40;99.90
6252;DHT22;3159;52.414;9.784;2022-11-03T06:44:39;10.30;99.90
6252;DHT22;3159;52.414;9.784;2022-11-03T06:47:22;10.30;99.90
6252;DHT22;3159;52.414;9.784;2022-11-03T06:49:50;10.30;99.90
6252;DHT22;3159;52.414;9.784;2022-11-03T06:52:24;10.40;99.90
6252;DHT22;3159;52.414;9.784;2022-11-03T06:54:54;10.30;99.90
6252;DHT22;3159;52.414;9.784;2022-11-03T06:57:25;10.30;99.90
6252;DHT22;3159;52.414;9.784;2022-11-03T06:59:54;10.30;99.90
6252;DHT22;3159;52.414;9.784;2022-11-03T07:02:42;10.40;99.90
6252;DHT22;3159;52.414;9.784;2022-11-03T07:05:19;10.30;99.90
6252;DHT22;3159;52.414;9.784;2022-11-03T07:07:48;10.30;99.90
6252;DHT22;3159;52.414;9.784;2022-11-03T07:10:16;10.30;99.90
6252;DHT22;3159;52.414;9.784;2022-11-03T07:12:42;10.30;99.90
6252;DHT22;3159;52.414;9.784;2022-11-03T07:15:21;10.40;99.90
6252;DHT22;3159;52.414;9.784;2022-11-03T07:17:49;10.30;99.90
6252;DHT22;3159;52.414;9.784;2022-11-03T07:20:16;10.40;99.90
6252;DHT22;3159;52.414;9.784;2022-11-03T07:22:44;10.40;99.90
6252;DHT22;3159;52.414;9.784;2022-11-03T07:25:16;10.50;99.90
6252;DHT22;3159;52.414;9.784;2022-11-03T07:27:43;10.50;99.90
6252;DHT22;3159;52.414;9.784;2022-11-03T07:30:19;10.40;99.90
6252;DHT22;3159;52.414;9.784;2022-11-03T07:32:48;10.50;99.90
6252;DHT22;3159;52.414;9.784;2022-11-03T07:35:29;10.60;99.90
6252;DHT22;3159;52.414;9.784;2022-11-03T07:38:00;10.60;99.90
6252;DHT22;3159;52.414;9.784;2022-11-03T07:40:31;10.50;99.90
6252;DHT22;3159;52.414;9.784;2022-11-03T07:43:00;10.60;99.90
6252;DHT22;3159;52.414;9.784;2022-11-03T07:45:39;10.70;99.90
6252;DHT22;3159;52.414;9.784;2022-11-03T07:48:17;10.70;99.90
6252;DHT22;3159;52.414;9.784;2022-11-03T07:50:45;10.70;99.90
6252;DHT22;3159;52.414;9.784;2022-11-03T07:53:15;10.70;99.90
6252;DHT22;3159;52.414;9.784;2022-11-03T07:55:45;10.70;99.90
6252;DHT22;3159;52.414;9.784;2022-11-03T07:58:20;10.60;99.90
6252;DHT22;3159;52.414;9.784;2022-11-03T08:00:47;10.60;99.90
6252;DHT22;3159;52.414;9.784;2022-11-03T08:03:25;10.60;99.90
6252;DHT22;3159;52.414;9.784;2022-11-03T08:05:54;10.60;99.90
6252;DHT22;3159;52.414;9.784;2022-11-03T08:08:21;10.70;99.90
6252;DHT22;3159;52.414;9.784;2022-11-03T08:10:49;10.70;99.90
6252;DHT22;3159;52.414;9.784;2022-11-03T08:13:16;10.60;99.90
6252;DHT22;3159;52.414;9.784;2022-11-03T08:15:43;10.60;99.90
6252;DHT22;3159;52.414;9.784;2022-11-03T08:18:10;10.60;99.90
6252;DHT22;3159;52.414;9.784;2022-11-03T08:20:37;10.70;99.90
6252;DHT22;3159;52.414;9.784;2022-11-03T08:23:04;10.70;99.90
6252;DHT22;3159;52.414;9.784;2022-11-03T08:25:30;10.80;99.90
6252;DHT22;3159;52.414;9.784;2022-11-03T08:27:59;10.80;99.90
6252;DHT22;3159;52.414;9.784;2022-11-03T08:30:27;10.80;99.90
6252;DHT22;3159;52.414;9.784;2022-11-03T08:32:54;11.00;99.90
6252;DHT22;3159;52.414;9.784;2022-11-03T08:35:21;11.10;99.90
6252;DHT22;3159;52.414;9.784;2022-11-03T08:37:48;11.20;99.90
6252;DHT22;3159;52.414;9.784;2022-11-03T08:40:15;11.70;99.90
6252;DHT22;3159;52.414;9.784;2022-11-03T08:42:43;11.70;99.90
6252;DHT22;3159;52.414;9.784;2022-11-03T08:45:11;12.00;99.90
6252;DHT22;3159;52.414;9.784;2022-11-03T08:47:38;11.90;99.90
6252;DHT22;3159;52.414;9.784;2022-11-03T08:50:06;12.10;99.90
6252;DHT22;3159;52.414;9.784;2022-11-03T08:52:33;12.10;99.90
6252;DHT22;3159;52.414;9.784;2022-11-03T08:55:00;12.10;99.90
6252;DHT22;3159;52.414;9.784;2022-11-03T08:57:26;12.20;99.90
6252;DHT22;3159;52.414;9.784;2022-11-03T08:59:53;12.20;99.90
6252;DHT22;3159;52.414;9.784;2022-11-03T09:02:22;12.20;99.90
6252;DHT22;3159;52.414;9.784;2022-11-03T09:04:48;12.40;99.90
6252;DHT22;3159;52.414;9.784;2022-11-03T09:07:15;12.60;99.90
6252;DHT22;3159;52.414;9.784;2022-11-03T09:09:42;12.90;99.90
6252;DHT22;3159;52.414;9.784;2022-11-03T09:12:09;13.00;99.90
6252;DHT22;3159;52.414;9.784;2022-11-03T09:14:36;13.10;99.90
6252;DHT22;3159;52.414;9.784;2022-11-03T09:17:03;13.00;99.90
6252;DHT22;3159;52.414;9.784;2022-11-03T09:19:31;13.20;99.90
6252;DHT22;3159;52.414;9.784;2022-11-03T09:21:58;13.30;99.90
6252;DHT22;3159;52.414;9.784;2022-11-03T09:24:25;13.60;99.90
6252;DHT22;3159;52.414;9.784;2022-11-03T09:26:52;14.00;99.90
6252;DHT22;3159;52.414;9.784;2022-11-03T09:29:19;13.80;99.90
6252;DHT22;3159;52.414;9.784;2022-11-03T09:31:46;13.70;99.90
6252;DHT22;3159;52.414;9.784;2022-11-03T09:34:13;13.70;99.90
6252;DHT22;3159;52.414;9.784;2022-11-03T09:36:41;13.30;99.90
6252;DHT22;3159;52.414;9.784;2022-11-03T09:39:08;13.40;99.90
6252;DHT22;3159;52.414;9.784;2022-11-03T09:41:35;13.30;99.90
6252;DHT22;3159;52.414;9.784;2022-11-03T09:44:02;13.40;99.90
6252;DHT22;3159;52.414;9.784;2022-11-03T09:46:29;13.50;99.90
6252;DHT22;3159;52.414;9.784;2022-11-03T09:48:56;13.80;99.90
6252;DHT22;3159;52.414;9.784;2022-11-03T09:51:25;13.60;99.90
6252;DHT22;3159;52.414;9.784;2022-11-03T09:53:55;13.70;99.90
6252;DHT22;3159;52.414;9.784;2022-11-03T09:56:23;13.60;99.90
6252;DHT22;3159;52.414;9.784;2022-11-03T09:58:51;13.20;99.90
6252;DHT22;3159;52.414;9.784;2022-11-03T10:01:18;13.40;99.90
6252;DHT22;3159;52.414;9.784;2022-11-03T10:03:45;13.20;99.90
6252;DHT22;3159;52.414;9.784;2022-11-03T10:06:12;13.20;99.90
6252;DHT22;3159;52.414;9.784;2022-11-03T10:08:43;13.20;99.90
6252;DHT22;3159;52.414;9.784;2022-11-03T10:11:12;13.20;99.90
6252;DHT22;3159;52.414;9.784;2022-11-03T10:13:42;13.10;99.90
6252;DHT22;3159;52.414;9.784;2022-11-03T10:16:14;13.20;99.90
6252;DHT22;3159;52.414;9.784;2022-11-03T10:18:41;13.30;99.90
6252;DHT22;3159;52.414;9.784;2022-11-03T10:21:14;13.30;99.90
6252;DHT22;3159;52.414;9.784;2022-11-03T10:23:41;13.20;99.90
6252;DHT22;3159;52.414;9.784;2022-11-03T10:26:09;13.40;99.90
6252;DHT22;3159;52.414;9.784;2022-11-03T10:28:38;13.30;99.90
6252;DHT22;3159;52.414;9.784;2022-11-03T10:31:06;13.30;99.90
6252;DHT22;3159;52.414;9.784;2022-11-03T10:33:50;13.40;99.90
6252;DHT22;3159;52.414;9.784;2022-11-03T10:36:23;13.40;99.90
6252;DHT22;3159;52.414;9.784;2022-11-03T10:38:51;13.60;99.90
6252;DHT22;3159;52.414;9.784;2022-11-03T10:41:19;13.60;99.90
6252;DHT22;3159;52.414;9.784;2022-11-03T10:44:04;13.40;99.90
6252;DHT22;3159;52.414;9.784;2022-11-03T10:46:33;13.40;99.90
6252;DHT22;3159;52.414;9.784;2022-11-03T10:49:04;13.50;99.90
6252;DHT22;3159;52.414;9.784;2022-11-03T10:51:33;13.40;99.90
6252;DHT22;3159;52.414;9.784;2022-11-03T10:54:01;13.50;99.90
6252;DHT22;3159;52.414;9.784;2022-11-03T10:56:29;13.50;99.90
6252;DHT22;3159;52.414;9.784;2022-11-03T10:58:57;13.50;99.90
6252;DHT22;3159;52.414;9.784;2022-11-03T11:01:25;13.50;99.90
6252;DHT22;3159;52.414;9.784;2022-11-03T11:03:53;13.50;99.90
6252;DHT22;3159;52.414;9.784;2022-11-03T11:06:22;13.40;99.90
6252;DHT22;3159;52.414;9.784;2022-11-03T11:08:51;13.60;99.90
6252;DHT22;3159;52.414;9.784;2022-11-03T11:11:22;13.60;99.90
6252;DHT22;3159;52.414;9.784;2022-11-03T11:14:20;13.60;99.90
6252;DHT22;3159;52.414;9.784;2022-11-03T11:16:50;13.60;99.90
6252;DHT22;3159;52.414;9.784;2022-11-03T11:19:17;13.60;99.90
6252;DHT22;3159;52.414;9.784;2022-11-03T11:22:01;13.80;99.90
6252;DHT22;3159;52.414;9.784;2022-11-03T11:24:57;13.80;99.90
6252;DHT22;3159;52.414;9.784;2022-11-03T11:27:55;13.70;99.90
6252;DHT22;3159;52.414;9.784;2022-11-03T11:33:33;13.60;99.90
6252;DHT22;3159;52.414;9.784;2022-11-03T11:38:54;13.80;99.90
6252;DHT22;3159;52.414;9.784;2022-11-03T11:41:26;13.70;99.90
6252;DHT22;3159;52.414;9.784;2022-11-03T11:50:24;13.90;99.90
6252;DHT22;3159;52.414;9.784;2022-11-03T11:52:59;13.80;99.90
6252;DHT22;3159;52.414;9.784;2022-11-03T11:55:36;13.70;99.90
6252;DHT22;3159;52.414;9.784;2022-11-03T11:58:13;13.90;99.90
6252;DHT22;3159;52.414;9.784;2022-11-03T12:00:53;13.80;99.90
6252;DHT22;3159;52.414;9.784;2022-11-03T12:03:25;13.70;99.90
6252;DHT22;3159;52.414;9.784;2022-11-03T12:05:54;13.80;99.90
6252;DHT22;3159;52.414;9.784;2022-11-03T12:08:25;13.60;99.90
6252;DHT22;3159;52.414;9.784;2022-11-03T12:10:55;13.80;99.90
6252;DHT22;3159;52.414;9.784;2022-11-03T12:13:49;13.80;99.90
6252;DHT22;3159;52.414;9.784;2022-11-03T12:16:33;13.80;99.90
6252;DHT22;3159;52.414;9.784;2022-11-03T12:19:35;13.80;99.90
6252;DHT22;3159;52.414;9.784;2022-11-03T12:22:05;13.70;99.90
6252;DHT22;3159;52.414;9.784;2022-11-03T12:24:50;13.80;99.90
6252;DHT22;3159;52.414;9.784;2022-11-03T12:30:05;13.80;99.90
6252;DHT22;3159;52.414;9.784;2022-11-03T12:32:34;13.90;99.90
6252;DHT22;3159;52.414;9.784;2022-11-03T12:35:01;13.90;99.90
6252;DHT22;3159;52.414;9.784;2022-11-03T12:37:29;13.80;99.90
6252;DHT22;3159;52.414;9.784;2022-11-03T12:39:56;13.80;99.90
6252;DHT22;3159;52.414;9.784;2022-11-03T12:42:23;13.90;99.90
6252;DHT22;3159;52.414;9.784;2022-11-03T12:44:50;14.00;99.90
6252;DHT22;3159;52.414;9.784;2022-11-03T12:47:17;13.90;99.90
6252;DHT22;3159;52.414;9.784;2022-11-03T12:49:44;14.00;99.90
6252;DHT22;3159;52.414;9.784;2022-11-03T12:52:11;13.90;99.90
6252;DHT22;3159;52.414;9.784;2022-11-03T12:54:39;13.90;99.90
6252;DHT22;3159;52.414;9.784;2022-11-03T12:57:06;13.90;99.90
6252;DHT22;3159;52.414;9.784;2022-11-03T12:59:33;14.00;99.90
6252;DHT22;3159;52.414;9.784;2022-11-03T13:02:00;14.00;99.90
6252;DHT22;3159;52.414;9.784;2022-11-03T13:04:27;14.00;99.90
6252;DHT22;3159;52.414;9.784;2022-11-03T13:06:54;13.90;99.90
6252;DHT22;3159;52.414;9.784;2022-11-03T13:09:21;13.80;99.90
6252;DHT22;3159;52.414;9.784;2022-11-03T13:11:49;13.80;99.90
6252;DHT22;3159;52.414;9.784;2022-11-03T13:14:34;13.90;99.90
6252;DHT22;3159;52.414;9.784;2022-11-03T13:17:01;13.90;99.90
6252;DHT22;3159;52.414;9.784;2022-11-03T13:19:29;14.00;99.90
6252;DHT22;3159;52.414;9.784;2022-11-03T13:21:55;14.10;99.90
6252;DHT22;3159;52.414;9.784;2022-11-03T13:24:22;13.90;99.90
6252;DHT22;3159;52.414;9.784;2022-11-03T13:26:50;13.90;99.90
6252;DHT22;3159;52.414;9.784;2022-11-03T13:29:17;13.80;99.90
6252;DHT22;3159;52.414;9.784;2022-11-03T13:31:44;13.90;99.90
6252;DHT22;3159;52.414;9.784;2022-11-03T13:34:11;14.00;99.90
6252;DHT22;3159;52.414;9.784;2022-11-03T13:36:38;14.00;99.90
6252;DHT22;3159;52.414;9.784;2022-11-03T13:39:05;14.00;99.90
6252;DHT22;3159;52.414;9.784;2022-11-03T13:41:31;13.90;99.90
6252;DHT22;3159;52.414;9.784;2022-11-03T13:44:00;14.00;99.90
6252;DHT22;3159;52.414;9.784;2022-11-03T13:46:27;14.00;99.90
6252;DHT22;3159;52.414;9.784;2022-11-03T13:48:54;14.00;99.90
6252;DHT22;3159;52.414;9.784;2022-11-03T13:51:27;13.90;99.90
6252;DHT22;3159;52.414;9.784;2022-11-03T13:54:17;14.00;99.90
6252;DHT22;3159;52.414;9.784;2022-11-03T13:56:44;14.10;99.90
6252;DHT22;3159;52.414;9.784;2022-11-03T13:59:30;14.10;99.90
6252;DHT22;3159;52.414;9.784;2022-11-03T14:01:57;14.10;99.90
6252;DHT22;3159;52.414;9.784;2022-11-03T14:04:49;14.10;99.90
6252;DHT22;3159;52.414;9.784;2022-11-03T14:07:25;14.00;99.90
6252;DHT22;3159;52.414;9.784;2022-11-03T14:09:52;14.00;99.90
6252;DHT22;3159;52.414;9.784;2022-11-03T14:12:50;14.00;99.90
6252;DHT22;3159;52.414;9.784;2022-11-03T14:15:18;13.80;99.90
6252;DHT22;3159;52.414;9.784;2022-11-03T14:17:45;13.80;99.90
6252;DHT22;3159;52.414;9.784;2022-11-03T14:20:12;13.90;99.90
6252;DHT22;3159;52.414;9.784;2022-11-03T14:22:39;13.90;99.90
6252;DHT22;3159;52.414;9.784;2022-11-03T14:25:07;13.80;99.90
6252;DHT22;3159;52.414;9.784;2022-11-03T14:27:34;13.80;99.90
6252;DHT22;3159;52.414;9.784;2022-11-03T14:30:01;13.80;99.90
6252;DHT22;3159;52.414;9.784;2022-11-03T14:32:29;13.80;99.90
6252;DHT22;3159;52.414;9.784;2022-11-03T14:34:56;13.70;99.90
6252;DHT22;3159;52.414;9.784;2022-11-03T14:37:23;13.80;99.90
6252;DHT22;3159;52.414;9.784;2022-11-03T14:39:50;13.80;99.90
6252;DHT22;3159;52.414;9.784;2022-11-03T14:42:17;14.00;99.90
6252;DHT22;3159;52.414;9.784;2022-11-03T14:44:44;13.90;99.90
6252;DHT22;3159;52.414;9.784;2022-11-03T14:47:12;13.80;99.90
6252;DHT22;3159;52.414;9.784;2022-11-03T14:49:41;13.80;99.90
6252;DHT22;3159;52.414;9.784;2022-11-03T14:52:08;13.80;99.90
6252;DHT22;3159;52.414;9.784;2022-11-03T14:54:35;13.70;99.90
6252;DHT22;3159;52.414;9.784;2022-11-03T14:57:02;13.70;99.90
6252;DHT22;3159;52.414;9.784;2022-11-03T14:59:29;13.70;99.90
6252;DHT22;3159;52.414;9.784;2022-11-03T15:01:57;13.80;99.90
6252;DHT22;3159;52.414;9.784;2022-11-03T15:04:24;13.60;99.90
6252;DHT22;3159;52.414;9.784;2022-11-03T15:06:53;13.60;99.90
6252;DHT22;3159;52.414;9.784;2022-11-03T15:09:20;13.60;99.90
6252;DHT22;3159;52.414;9.784;2022-11-03T15:11:47;13.60;99.90
6252;DHT22;3159;52.414;9.784;2022-11-03T15:14:14;13.60;99.90
6252;DHT22;3159;52.414;9.784;2022-11-03T15:16:40;13.70;99.90
6252;DHT22;3159;52.414;9.784;2022-11-03T15:19:09;13.70;99.90
6252;DHT22;3159;52.414;9.784;2022-11-03T15:21:36;13.60;99.90
6252;DHT22;3159;52.414;9.784;2022-11-03T15:24:05;13.50;99.90
6252;DHT22;3159;52.414;9.784;2022-11-03T15:26:32;13.50;99.90
6252;DHT22;3159;52.414;9.784;2022-11-03T15:28:58;13.50;99.90
6252;DHT22;3159;52.414;9.784;2022-11-03T15:31:25;13.50;99.90
6252;DHT22;3159;52.414;9.784;2022-11-03T15:33:52;13.50;99.90
6252;DHT22;3159;52.414;9.784;2022-11-03T15:36:19;13.40;99.90
6252;DHT22;3159;52.414;9.784;2022-11-03T15:38:46;13.30;99.90
6252;DHT22;3159;52.414;9.784;2022-11-03T15:41:14;13.30;99.90
6252;DHT22;3159;52.414;9.784;2022-11-03T15:43:42;13.40;99.90
6252;DHT22;3159;52.414;9.784;2022-11-03T15:46:10;13.40;99.90
6252;DHT22;3159;52.414;9.784;2022-11-03T15:48:37;13.40;99.90
6252;DHT22;3159;52.414;9.784;2022-11-03T15:51:04;13.30;99.90
6252;DHT22;3159;52.414;9.784;2022-11-03T15:53:31;13.40;99.90
6252;DHT22;3159;52.414;9.784;2022-11-03T15:55:58;13.40;99.90
6252;DHT22;3159;52.414;9.784;2022-11-03T15:58:26;13.30;99.90
6252;DHT22;3159;52.414;9.784;2022-11-03T16:00:55;13.30;99.90
6252;DHT22;3159;52.414;9.784;2022-11-03T16:03:22;13.20;99.90
6252;DHT22;3159;52.414;9.784;2022-11-03T16:05:49;13.30;99.90
6252;DHT22;3159;52.414;9.784;2022-11-03T16:08:16;13.30;99.90
6252;DHT22;3159;52.414;9.784;2022-11-03T16:10:42;13.20;99.90
6252;DHT22;3159;52.414;9.784;2022-11-03T16:13:09;13.20;99.90
6252;DHT22;3159;52.414;9.784;2022-11-03T16:15:37;13.30;99.90
6252;DHT22;3159;52.414;9.784;2022-11-03T16:18:04;13.30;99.90
6252;DHT22;3159;52.414;9.784;2022-11-03T16:20:31;13.30;99.90
6252;DHT22;3159;52.414;9.784;2022-11-03T16:22:58;13.30;99.90
6252;DHT22;3159;52.414;9.784;2022-11-03T16:25:26;13.30;99.90
6252;DHT22;3159;52.414;9.784;2022-11-03T16:27:53;13.30;99.90
6252;DHT22;3159;52.414;9.784;2022-11-03T16:30:20;13.30;99.90
6252;DHT22;3159;52.414;9.784;2022-11-03T16:32:48;13.30;99.90
6252;DHT22;3159;52.414;9.784;2022-11-03T16:35:17;13.30;99.90